createdAt,value
2018-10-03T00:00:00.371Z,89.62
2018-10-03T00:02:29.449Z,88.32
2018-10-03T00:04:57.834Z,88.11
2018-10-03T00:07:27.245Z,88.46
2018-10-03T00:09:55.735Z,87.43
2018-10-03T00:12:24.739Z,88.70
2018-10-03T00:14:53.307Z,88.27
2018-10-03T00:17:21.673Z,87.62
2018-10-03T00:19:50.027Z,88.63
2018-10-03T00:22:18.802Z,88.09
2018-10-03T00:24:47.202Z,87.98
2018-10-03T00:27:15.539Z,88.20
2018-10-03T00:29:44.485Z,88.28
2018-10-03T00:32:13.077Z,89.50
2018-10-03T00:34:41.500Z,88.93
2018-10-03T00:37:10.122Z,89.20
2018-10-03T00:39:38.514Z,88.90
2018-10-03T00:42:07.119Z,89.82
2018-10-03T00:44:35.536Z,88.78
2018-10-03T00:47:03.970Z,89.48
2018-10-03T00:49:33.114Z,88.56
2018-10-03T00:52:01.529Z,88.80
2018-10-03T00:54:29.872Z,89.12
2018-10-03T00:56:58.211Z,89.37
2018-10-03T00:59:26.646Z,89.04
2018-10-03T01:01:55.023Z,89.85
2018-10-03T01:04:23.343Z,89.49
2018-10-03T01:06:52.148Z,90.13
2018-10-03T01:09:21.123Z,89.77
2018-10-03T01:11:50.000Z,90.52
2018-10-03T01:14:18.380Z,90.15
2018-10-03T01:16:47.606Z,90.41
2018-10-03T01:19:16.008Z,89.97
2018-10-03T01:21:44.365Z,90.17
2018-10-03T01:24:12.753Z,90.50
2018-10-03T01:26:41.177Z,90.91
2018-10-03T01:29:09.754Z,91.42
2018-10-03T01:31:38.186Z,91.52
2018-10-03T01:34:06.594Z,91.42
2018-10-03T01:36:34.994Z,91.15
2018-10-03T01:39:04.729Z,91.48
2018-10-03T01:41:33.116Z,92.15
2018-10-03T01:44:01.457Z,92.04
2018-10-03T01:46:29.875Z,91.12
2018-10-03T01:48:58.438Z,90.79
2018-10-03T01:51:26.806Z,90.32
2018-10-03T01:53:55.331Z,90.17
2018-10-03T01:56:23.723Z,90.31
2018-10-03T01:58:52.118Z,89.80
2018-10-03T02:01:20.632Z,90.21
2018-10-03T02:03:49.961Z,90.72
2018-10-03T02:06:18.294Z,90.85
2018-10-03T02:08:47.233Z,90.42
2018-10-03T02:11:15.602Z,90.76
2018-10-03T02:13:43.995Z,90.27
2018-10-03T02:16:12.349Z,90.66
2018-10-03T02:18:40.691Z,90.78
2018-10-03T02:21:09.041Z,90.15
2018-10-03T02:23:37.468Z,91.03
2018-10-03T02:26:05.838Z,90.87
2018-10-03T02:28:34.224Z,90.50
2018-10-03T02:31:02.744Z,91.04
2018-10-03T02:33:31.179Z,91.22
2018-10-03T02:35:59.628Z,91.00
2018-10-03T02:38:28.619Z,90.60
2018-10-03T02:40:56.946Z,90.58
2018-10-03T02:43:25.338Z,90.44
2018-10-03T02:45:53.687Z,90.42
2018-10-03T02:48:22.138Z,90.53
2018-10-03T02:50:50.495Z,90.51
2018-10-03T02:53:19.326Z,90.64
2018-10-03T02:55:47.806Z,91.26
2018-10-03T02:58:16.187Z,91.28
2018-10-03T03:00:44.848Z,91.41
2018-10-03T03:03:13.221Z,90.81
2018-10-03T03:05:41.610Z,90.96
2018-10-03T03:08:09.922Z,91.87
2018-10-03T03:10:38.262Z,91.54
2018-10-03T03:13:06.623Z,91.69
2018-10-03T03:15:35.060Z,91.20
2018-10-03T03:18:03.515Z,91.53
2018-10-03T03:20:32.015Z,91.56
2018-10-03T03:23:00.373Z,91.95
2018-10-03T03:25:29.229Z,91.48
2018-10-03T03:27:57.631Z,92.14
2018-10-03T03:30:25.952Z,91.54
2018-10-03T03:32:54.694Z,92.07
2018-10-03T03:35:23.228Z,92.08
2018-10-03T03:37:51.618Z,92.17
2018-10-03T03:40:19.989Z,92.52
2018-10-03T03:42:48.323Z,91.66
2018-10-03T03:45:16.970Z,90.93
2018-10-03T03:47:45.288Z,91.44
2018-10-03T03:50:13.653Z,90.83
2018-10-03T03:52:41.951Z,90.45
2018-10-03T03:55:10.263Z,90.60
2018-10-03T03:57:38.642Z,90.38
2018-10-03T04:00:07.010Z,91.25
2018-10-03T04:02:35.411Z,91.86
2018-10-03T04:05:03.777Z,92.13
2018-10-03T04:07:32.157Z,92.67
2018-10-03T04:10:00.541Z,93.00
2018-10-03T04:12:28.952Z,94.21
2018-10-03T04:14:57.334Z,94.15
2018-10-03T04:17:25.711Z,94.63
2018-10-03T04:19:54.372Z,95.38
2018-10-03T04:22:22.922Z,96.39
2018-10-03T04:24:51.293Z,95.54
2018-10-03T04:27:19.633Z,95.84
2018-10-03T04:29:48.018Z,97.10
2018-10-03T04:32:16.353Z,97.89
2018-10-03T04:34:44.736Z,96.92
2018-10-03T04:37:13.174Z,97.21
2018-10-03T04:39:41.561Z,97.71
2018-10-03T04:42:09.930Z,98.16
2018-10-03T04:44:38.374Z,97.76
2018-10-03T04:47:06.686Z,97.81
2018-10-03T04:49:35.058Z,98.45
2018-10-03T04:52:03.430Z,98.57
2018-10-03T04:54:31.802Z,97.99
2018-10-03T04:57:00.187Z,98.48
2018-10-03T04:59:28.587Z,98.18
2018-10-03T05:01:57.018Z,97.96
2018-10-03T05:04:25.546Z,97.10
2018-10-03T05:06:53.904Z,97.45
2018-10-03T05:09:22.332Z,97.19
2018-10-03T05:11:50.745Z,96.89
2018-10-03T05:14:19.506Z,96.26
2018-10-03T05:16:47.870Z,95.73
2018-10-03T05:19:16.213Z,95.89
2018-10-03T05:21:44.649Z,96.28
2018-10-03T05:24:13.039Z,95.13
2018-10-03T05:26:41.390Z,95.56
2018-10-03T05:29:09.769Z,95.34
2018-10-03T05:34:36.922Z,94.48
2018-10-03T05:37:05.275Z,93.07
2018-10-03T05:39:34.171Z,92.98
2018-10-03T05:42:02.519Z,92.51
2018-10-03T05:44:31.021Z,92.17
2018-10-03T05:46:59.395Z,91.58
2018-10-03T05:49:27.949Z,92.48
2018-10-03T05:51:56.367Z,92.36
2018-10-03T05:54:24.745Z,92.76
2018-10-03T05:56:53.109Z,92.31
2018-10-03T05:59:21.709Z,91.59
2018-10-03T06:01:50.551Z,91.03
2018-10-03T06:04:18.930Z,91.73
2018-10-03T06:06:48.995Z,91.15
2018-10-03T06:09:19.419Z,90.52
2018-10-03T06:11:47.991Z,91.11
2018-10-03T06:14:16.425Z,91.05
2018-10-03T06:16:44.860Z,90.59
2018-10-03T06:19:13.668Z,90.71
2018-10-03T06:21:44.040Z,90.40
2018-10-03T06:24:14.130Z,90.89
2018-10-03T06:26:43.111Z,90.81
2018-10-03T06:29:11.874Z,90.05
2018-10-03T06:31:42.035Z,90.91
2018-10-03T06:34:10.419Z,89.39
2018-10-03T06:36:40.431Z,89.07
2018-10-03T06:39:09.828Z,88.75
2018-10-03T06:41:39.694Z,87.93
2018-10-03T06:44:10.405Z,87.13
2018-10-03T06:46:40.645Z,87.09
2018-10-03T06:49:09.092Z,86.43
2018-10-03T06:51:39.748Z,85.80
2018-10-03T06:54:08.224Z,85.51
2018-10-03T06:56:36.618Z,85.05
2018-10-03T06:59:05.933Z,83.36
2018-10-03T07:01:37.087Z,84.45
2018-10-03T07:04:12.311Z,84.03
2018-10-03T07:06:42.060Z,82.92
2018-10-03T07:09:11.281Z,83.10
2018-10-03T07:11:39.949Z,83.78
2018-10-03T07:14:08.862Z,82.73
2018-10-03T07:16:37.991Z,81.58
2018-10-03T07:19:07.312Z,80.94
2018-10-03T07:21:36.493Z,81.40
2018-10-03T07:24:04.958Z,81.65
2018-10-03T07:26:34.339Z,80.79
2018-10-03T07:29:04.224Z,81.23
2018-10-03T07:31:33.069Z,80.76
2018-10-03T07:34:01.876Z,79.25
2018-10-03T07:36:32.234Z,79.22
2018-10-03T07:39:00.970Z,78.03
2018-10-03T07:41:29.980Z,78.42
2018-10-03T07:43:59.236Z,77.30
2018-10-03T07:46:28.136Z,77.17
2018-10-03T07:48:56.852Z,74.80
2018-10-03T07:51:25.844Z,75.22
2018-10-03T07:53:56.006Z,74.75
2018-10-03T07:56:25.735Z,74.42
2018-10-03T07:58:54.962Z,74.46
2018-10-03T08:01:23.991Z,74.07
2018-10-03T08:03:53.004Z,74.00
2018-10-03T08:06:22.829Z,74.07
2018-10-03T08:08:51.734Z,75.09
2018-10-03T08:11:20.804Z,75.21
2018-10-03T08:13:50.197Z,74.98
2018-10-03T08:16:21.661Z,75.72
2018-10-03T08:18:53.310Z,74.99
2018-10-03T08:21:24.555Z,74.73
2018-10-03T08:23:54.613Z,75.01
2018-10-03T08:26:24.097Z,75.40
2018-10-03T08:28:58.186Z,75.51
2018-10-03T08:31:27.765Z,74.51
2018-10-03T08:33:56.973Z,74.91
2018-10-03T08:36:27.794Z,75.56
2018-10-03T08:38:57.395Z,75.02
2018-10-03T08:41:27.076Z,75.79
2018-10-03T08:43:57.444Z,75.71
2018-10-03T08:46:28.078Z,75.75
2018-10-03T08:48:58.112Z,76.15
2018-10-03T08:51:31.667Z,76.51
2018-10-03T08:54:01.096Z,75.16
2018-10-03T08:56:30.047Z,76.14
2018-10-03T08:59:00.530Z,76.06
2018-10-03T09:01:29.327Z,76.52
2018-10-03T09:03:57.970Z,77.05
2018-10-03T09:06:27.303Z,76.29
2018-10-03T09:08:55.903Z,77.04
2018-10-03T09:11:24.665Z,75.74
2018-10-03T09:13:53.224Z,75.42
2018-10-03T09:16:21.855Z,74.62
2018-10-03T09:18:50.902Z,75.22
2018-10-03T09:21:19.821Z,74.49
2018-10-03T09:23:48.442Z,74.32
2018-10-03T09:26:16.939Z,75.45
2018-10-03T09:28:45.515Z,75.79
2018-10-03T09:31:15.076Z,75.42
2018-10-03T09:33:43.700Z,75.07
2018-10-03T09:36:13.107Z,76.42
2018-10-03T09:38:41.717Z,75.38
2018-10-03T09:41:10.468Z,78.23
2018-10-03T09:43:39.180Z,80.27
2018-10-03T09:46:07.783Z,81.41
2018-10-03T09:48:36.547Z,81.22
2018-10-03T09:51:06.028Z,82.21
2018-10-03T09:53:35.142Z,81.77
2018-10-03T09:56:04.066Z,80.84
2018-10-03T09:58:33.020Z,81.24
2018-10-03T10:01:06.743Z,80.82
2018-10-03T10:03:35.614Z,83.13
2018-10-03T10:06:04.509Z,87.17
2018-10-03T10:08:33.676Z,91.06
2018-10-03T10:11:03.971Z,91.85
2018-10-03T10:13:33.729Z,92.23
2018-10-03T10:16:03.040Z,93.49
2018-10-03T10:18:31.975Z,94.50
2018-10-03T10:21:01.247Z,94.42
2018-10-03T10:23:31.057Z,91.75
2018-10-03T10:26:01.590Z,93.17
2018-10-03T10:28:31.288Z,91.66
2018-10-03T10:31:01.831Z,89.99
2018-10-03T10:33:31.509Z,88.65
2018-10-03T10:36:01.821Z,88.44
2018-10-03T10:38:32.377Z,85.78
2018-10-03T10:41:02.380Z,85.56
2018-10-03T10:43:32.676Z,82.90
2018-10-03T10:46:01.805Z,81.96
2018-10-03T10:48:30.816Z,80.08
2018-10-03T10:51:01.995Z,80.51
2018-10-03T10:53:32.172Z,79.59
2018-10-03T10:56:01.951Z,78.79
2018-10-03T10:58:30.942Z,78.80
2018-10-03T11:01:01.298Z,76.93
2018-10-03T11:03:31.617Z,75.71
2018-10-03T11:06:02.495Z,76.41
2018-10-03T11:08:32.580Z,76.93
2018-10-03T11:11:02.305Z,74.62
2018-10-03T11:13:32.169Z,73.05
2018-10-03T11:16:01.909Z,72.37
2018-10-03T11:18:31.435Z,71.62
2018-10-03T11:21:00.452Z,73.13
2018-10-03T11:23:30.853Z,72.19
2018-10-03T11:26:00.866Z,72.65
2018-10-03T11:28:31.256Z,72.18
2018-10-03T11:31:01.488Z,71.64
2018-10-03T11:33:31.111Z,71.87
2018-10-03T11:36:01.007Z,72.96
2018-10-03T11:38:30.750Z,72.95
2018-10-03T11:41:00.356Z,74.29
2018-10-03T11:43:31.051Z,75.40
2018-10-03T11:46:00.580Z,74.27
2018-10-03T11:48:29.954Z,72.09
2018-10-03T11:51:00.052Z,72.25
2018-10-03T11:53:29.167Z,72.28
2018-10-03T11:55:59.222Z,71.11
2018-10-03T11:58:29.141Z,71.81
2018-10-03T12:00:58.389Z,71.53
2018-10-03T12:03:27.333Z,72.11
2018-10-03T12:05:56.211Z,71.97
2018-10-03T12:08:24.948Z,71.70
2018-10-03T12:10:55.502Z,73.13
2018-10-03T12:13:24.755Z,76.13
2018-10-03T12:15:53.787Z,79.55
2018-10-03T12:18:22.716Z,79.88
2018-10-03T12:20:51.646Z,81.56
2018-10-03T12:23:20.470Z,81.79
2018-10-03T12:26:19.633Z,83.49
2018-10-03T12:28:48.089Z,84.40
2018-10-03T12:31:16.415Z,84.78
2018-10-03T12:33:45.553Z,83.82
2018-10-03T12:36:13.854Z,83.62
2018-10-03T12:38:42.296Z,83.89
2018-10-03T12:41:11.388Z,82.83
2018-10-03T12:43:39.874Z,80.42
2018-10-03T12:46:08.316Z,81.24
2018-10-03T12:48:36.701Z,79.53
2018-10-03T12:51:05.123Z,77.64
2018-10-03T12:53:35.013Z,77.00
2018-10-03T12:56:03.498Z,75.31
2018-10-03T12:58:31.886Z,73.95
2018-10-03T13:01:05.687Z,71.67
2018-10-03T13:03:34.048Z,71.65
2018-10-03T13:06:02.418Z,70.82
2018-10-03T13:08:30.810Z,71.28
2018-10-03T13:10:59.357Z,70.53
2018-10-03T13:13:27.713Z,69.25
2018-10-03T13:15:56.141Z,69.12
2018-10-03T13:18:24.964Z,68.77
2018-10-03T13:20:55.454Z,68.12
2018-10-03T13:23:23.849Z,67.51
2018-10-03T13:25:52.214Z,67.32
2018-10-03T13:28:20.600Z,69.85
2018-10-03T13:30:48.993Z,67.49
2018-10-03T13:33:18.106Z,67.41
2018-10-03T13:35:46.501Z,68.29
2018-10-03T13:38:14.866Z,67.46
2018-10-03T13:40:43.331Z,68.93
2018-10-03T13:43:11.719Z,68.96
2018-10-03T13:45:40.203Z,67.27
2018-10-03T13:48:08.647Z,68.69
2018-10-03T13:50:37.114Z,69.40
2018-10-03T13:53:06.725Z,70.02
2018-10-03T13:55:35.273Z,71.05
2018-10-03T14:00:46.470Z,71.35
2018-10-03T14:03:14.955Z,71.42
2018-10-03T14:05:43.399Z,71.96
2018-10-03T14:08:13.592Z,71.23
2018-10-03T14:10:44.161Z,72.13
2018-10-03T14:13:12.548Z,71.44
2018-10-03T14:15:41.192Z,70.76
2018-10-03T14:18:09.593Z,70.19
2018-10-03T14:20:38.282Z,70.48
2018-10-03T14:23:07.164Z,71.04
2018-10-03T14:25:36.595Z,70.04
2018-10-03T14:28:06.420Z,70.61
2018-10-03T14:30:35.450Z,71.06
2018-10-03T14:33:03.881Z,70.23
2018-10-03T14:35:32.297Z,70.73
2018-10-03T14:38:00.697Z,70.55
2018-10-03T14:40:44.066Z,71.78
2018-10-03T14:43:12.508Z,71.19
2018-10-03T14:45:40.867Z,70.70
2018-10-03T14:48:09.242Z,70.71
2018-10-03T14:50:39.017Z,70.91
2018-10-03T14:53:08.609Z,71.15
2018-10-03T14:55:39.249Z,70.00
2018-10-03T14:58:10.027Z,71.03
2018-10-03T15:00:39.369Z,70.51
2018-10-03T15:06:01.534Z,70.03
2018-10-03T15:14:15.255Z,70.79
2018-10-03T15:16:44.691Z,70.01
2018-10-03T15:19:16.067Z,69.68
2018-10-03T15:21:47.200Z,70.25
2018-10-03T15:24:41.936Z,70.54
2018-10-03T15:30:20.790Z,70.54
2018-10-03T15:44:34.245Z,71.12
2018-10-03T15:47:13.790Z,71.69
2018-10-03T15:49:43.358Z,72.12
2018-10-03T15:58:02.861Z,74.55
2018-10-03T16:00:37.405Z,74.72
2018-10-03T16:05:59.585Z,75.14
2018-10-03T16:08:33.383Z,75.20
2018-10-03T16:11:17.519Z,74.73
2018-10-03T16:13:58.369Z,75.55
2018-10-03T16:16:39.089Z,75.05
2018-10-03T16:19:10.284Z,76.17
2018-10-03T16:21:39.801Z,76.21
2018-10-03T16:27:05.086Z,76.39
2018-10-03T16:29:37.198Z,76.16
2018-10-03T16:32:08.547Z,76.86
2018-10-03T16:34:39.157Z,77.24
2018-10-03T16:42:48.994Z,78.00
2018-10-03T16:47:58.648Z,77.76
2018-10-03T16:50:45.796Z,78.22
2018-10-03T16:53:17.705Z,77.96
2018-10-03T16:58:30.251Z,77.94
2018-10-03T17:01:00.813Z,78.59
2018-10-03T17:03:31.729Z,78.60
2018-10-03T17:06:01.043Z,79.20
2018-10-03T17:08:31.900Z,77.24
2018-10-03T17:11:02.766Z,77.22
2018-10-03T17:13:36.118Z,76.23
2018-10-03T17:16:08.357Z,75.75
2018-10-03T17:18:47.590Z,75.61
2018-10-03T17:21:17.266Z,75.17
2018-10-03T17:23:45.678Z,76.32
2018-10-03T17:26:14.769Z,76.30
2018-10-03T17:28:44.299Z,76.54
2018-10-03T17:31:19.264Z,76.81
2018-10-03T17:33:48.913Z,76.78
2018-10-03T17:36:21.013Z,77.60
2018-10-03T17:38:51.493Z,77.21
2018-10-03T17:41:20.671Z,77.70
2018-10-03T17:43:49.162Z,77.79
2018-10-03T17:46:17.549Z,78.74
2018-10-03T17:48:45.996Z,78.44
2018-10-03T17:51:14.391Z,79.56
2018-10-03T17:53:42.730Z,79.40
2018-10-03T17:56:11.121Z,79.47
2018-10-03T17:58:39.476Z,79.88
2018-10-03T18:01:07.884Z,80.49
2018-10-03T18:03:36.365Z,80.58
2018-10-03T18:06:04.778Z,81.18
2018-10-03T18:08:33.233Z,80.92
2018-10-03T18:11:01.661Z,81.98
2018-10-03T18:13:30.258Z,81.77
2018-10-03T18:15:59.172Z,82.33
2018-10-03T18:18:28.127Z,82.55
2018-10-03T18:21:05.474Z,82.42
2018-10-03T18:23:34.502Z,82.93
2018-10-03T18:26:03.230Z,82.76
2018-10-03T18:28:31.931Z,82.98
2018-10-03T18:31:00.738Z,82.90
2018-10-03T18:33:29.165Z,83.68
2018-10-03T18:35:58.163Z,83.42
2018-10-03T18:38:27.252Z,82.90
2018-10-03T18:40:57.152Z,82.59
2018-10-03T18:43:26.396Z,83.02
2018-10-03T18:45:55.064Z,83.47
2018-10-03T18:48:23.635Z,83.12
2018-10-03T18:50:52.217Z,83.76
2018-10-03T18:53:21.354Z,83.78
2018-10-03T18:55:50.284Z,83.65
2018-10-03T18:58:19.391Z,84.20
2018-10-03T19:00:48.682Z,83.50
2018-10-03T19:03:17.668Z,83.76
2018-10-03T19:05:46.178Z,83.70
2018-10-03T19:08:15.111Z,83.91
2018-10-03T19:10:44.791Z,84.04
2018-10-03T19:13:14.529Z,83.71
2018-10-03T19:15:43.109Z,83.66
2018-10-03T19:18:11.626Z,83.92
2018-10-03T19:20:40.871Z,84.30
2018-10-03T19:23:09.681Z,84.27
2018-10-03T19:25:38.489Z,84.54
2018-10-03T19:28:07.723Z,84.53
2018-10-03T19:30:37.048Z,85.15
2018-10-03T19:33:05.655Z,85.04
2018-10-03T19:35:34.142Z,84.88
2018-10-03T19:38:03.146Z,85.23
2018-10-03T19:40:31.727Z,85.73
2018-10-03T19:43:00.731Z,85.61
2018-10-03T19:45:29.443Z,85.41
2018-10-03T19:48:00.518Z,86.01
2018-10-03T19:50:28.932Z,86.88
2018-10-03T19:52:57.344Z,86.61
2018-10-03T19:55:25.730Z,85.94
2018-10-03T19:57:54.679Z,85.80
2018-10-03T20:00:23.104Z,85.73
2018-10-03T20:02:51.589Z,86.60
2018-10-03T20:05:20.116Z,86.28
2018-10-03T20:07:48.562Z,86.23
2018-10-03T20:10:16.975Z,86.75
2018-10-03T20:12:45.496Z,86.36
2018-10-03T20:15:14.030Z,87.54
2018-10-03T20:17:42.476Z,87.00
2018-10-03T20:20:11.265Z,86.56
2018-10-03T20:22:39.842Z,86.51
2018-10-03T20:25:08.362Z,86.49
2018-10-03T20:27:37.577Z,86.96
2018-10-03T20:30:06.465Z,87.57
2018-10-03T20:32:35.383Z,86.95
2018-10-03T20:35:03.891Z,87.50
2018-10-03T20:37:32.310Z,87.48
2018-10-03T20:40:01.162Z,87.80
2018-10-03T20:42:29.859Z,87.39
2018-10-03T20:44:58.798Z,88.48
2018-10-03T20:47:27.459Z,88.39
2018-10-03T20:49:56.802Z,87.46
2018-10-03T20:52:26.799Z,87.70
2018-10-03T20:54:55.254Z,88.34
2018-10-03T20:57:23.671Z,87.49
2018-10-03T20:59:52.138Z,87.65
2018-10-03T21:02:20.481Z,88.25
2018-10-03T21:04:49.689Z,88.50
2018-10-03T21:07:18.781Z,88.72
2018-10-03T21:09:48.382Z,89.10
2018-10-03T21:12:17.539Z,88.58
2018-10-03T21:14:46.542Z,88.57
2018-10-03T21:17:16.145Z,89.15
2018-10-03T21:19:46.862Z,88.47
2018-10-03T21:22:15.364Z,88.38
2018-10-03T21:24:44.906Z,89.16
2018-10-03T21:27:15.725Z,89.66
2018-10-03T21:29:44.666Z,89.66
2018-10-03T21:32:13.091Z,89.70
2018-10-03T21:34:42.335Z,89.45
2018-10-03T21:37:11.361Z,89.93
2018-10-03T21:39:40.535Z,90.30
2018-10-03T21:42:09.622Z,90.60
2018-10-03T21:44:38.025Z,90.08
2018-10-03T21:47:06.597Z,90.57
2018-10-03T21:49:35.982Z,90.60
2018-10-03T21:52:04.385Z,90.25
2018-10-03T21:54:32.881Z,90.94
2018-10-03T21:57:01.228Z,91.37
2018-10-03T21:59:29.742Z,90.45
2018-10-03T22:01:58.792Z,91.15
2018-10-03T22:04:27.160Z,91.13
2018-10-03T22:06:55.517Z,91.15
2018-10-03T22:09:23.895Z,91.41
2018-10-03T22:11:52.526Z,91.43
2018-10-03T22:14:20.945Z,90.98
2018-10-03T22:16:49.515Z,91.61
2018-10-03T22:19:17.926Z,91.38
2018-10-03T22:21:46.335Z,91.81
2018-10-03T22:24:14.758Z,91.81
2018-10-03T22:26:43.408Z,91.46
2018-10-03T22:29:11.785Z,91.85
2018-10-03T22:31:40.942Z,92.67
2018-10-03T22:34:09.671Z,91.73
2018-10-03T22:36:38.303Z,91.69
2018-10-03T22:39:08.379Z,92.42
2018-10-03T22:41:37.047Z,92.31
2018-10-03T22:44:05.450Z,92.79
2018-10-03T22:46:34.005Z,93.05
2018-10-03T22:49:02.337Z,93.13
2018-10-03T22:51:30.716Z,91.83
2018-10-03T22:53:59.043Z,91.94
2018-10-03T22:56:27.453Z,92.03
2018-10-03T22:58:55.802Z,92.22
2018-10-03T23:01:24.175Z,92.14
2018-10-03T23:03:53.071Z,92.03
2018-10-03T23:06:22.921Z,91.89
2018-10-03T23:08:51.681Z,92.08
2018-10-03T23:11:20.560Z,91.61
2018-10-03T23:13:48.922Z,91.28
2018-10-03T23:16:17.524Z,91.08
2018-10-03T23:18:45.839Z,91.84
2018-10-03T23:21:14.213Z,91.77
2018-10-03T23:23:42.797Z,90.93
2018-10-03T23:26:11.166Z,91.10
2018-10-03T23:28:39.555Z,90.76
2018-10-03T23:31:07.955Z,91.09
2018-10-03T23:33:36.398Z,91.40
2018-10-03T23:36:05.043Z,91.84
2018-10-03T23:38:33.493Z,90.63
2018-10-03T23:41:01.893Z,90.67
2018-10-03T23:43:30.236Z,91.12
2018-10-03T23:45:58.849Z,91.15
2018-10-03T23:48:27.215Z,91.04
2018-10-03T23:50:55.617Z,90.95
2018-10-03T23:53:24.217Z,90.38
2018-10-03T23:55:52.948Z,90.28
2018-10-03T23:58:21.303Z,90.77
